<?xml version="1.0" encoding="UTF-8" standalone="no" ?>
<gpx xmlns="http://www.topografix.com/GPX/1/1" xmlns:xsi="http://www.w3.org/2001/XMLSchema-instance" xsi:schemaLocation="http://www.topografix.com/GPX/1/1 http://www.topografix.com/GPX/1/1/gpx.xsd" version="1.1" creator="VisuGPX - https://www.visugpx.com">
  <metadata>
    <name>Côte des Grands Chênes (Grande)</name>
  </metadata>
  <trk>
    <name><![CDATA[Parcours Bois Grand Chêne Côte]]></name>
    <trkseg>
      <trkpt lat="47.35703" lon="0.68198">
        <ele>57.400001525879</ele>
        <time>2019-05-26T06:01:22.000Z</time>
      </trkpt>
      <trkpt lat="47.35703" lon="0.68199">
        <ele>58</ele>
        <time>2019-05-26T06:01:23.000Z</time>
      </trkpt>
      <trkpt lat="47.35703" lon="0.682">
        <ele>58.400001525879</ele>
        <time>2019-05-26T06:01:24.000Z</time>
      </trkpt>
      <trkpt lat="47.35702" lon="0.68202">
        <ele>59</ele>
        <time>2019-05-26T06:01:25.000Z</time>
      </trkpt>
      <trkpt lat="47.35701" lon="0.68204">
        <ele>59.200000762939</ele>
        <time>2019-05-26T06:01:26.000Z</time>
      </trkpt>
      <trkpt lat="47.357" lon="0.68206">
        <ele>59.200000762939</ele>
        <time>2019-05-26T06:01:27.000Z</time>
      </trkpt>
      <trkpt lat="47.35699" lon="0.68208">
        <ele>59.400001525879</ele>
        <time>2019-05-26T06:01:28.000Z</time>
      </trkpt>
      <trkpt lat="47.35698" lon="0.68209">
        <ele>59.400001525879</ele>
        <time>2019-05-26T06:01:29.000Z</time>
      </trkpt>
      <trkpt lat="47.35697" lon="0.68211">
        <ele>59.400001525879</ele>
        <time>2019-05-26T06:01:30.000Z</time>
      </trkpt>
      <trkpt lat="47.35697" lon="0.68212">
        <ele>59.400001525879</ele>
        <time>2019-05-26T06:01:31.000Z</time>
      </trkpt>
      <trkpt lat="47.35696" lon="0.68213">
        <ele>59.400001525879</ele>
        <time>2019-05-26T06:01:32.000Z</time>
      </trkpt>
      <trkpt lat="47.35695" lon="0.68214">
        <ele>59.400001525879</ele>
        <time>2019-05-26T06:01:33.000Z</time>
      </trkpt>
      <trkpt lat="47.35694" lon="0.68216">
        <ele>59.400001525879</ele>
        <time>2019-05-26T06:01:34.000Z</time>
      </trkpt>
      <trkpt lat="47.35693" lon="0.68218">
        <ele>59.599998474121</ele>
        <time>2019-05-26T06:01:35.000Z</time>
      </trkpt>
      <trkpt lat="47.35692" lon="0.68219">
        <ele>59.599998474121</ele>
        <time>2019-05-26T06:01:36.000Z</time>
      </trkpt>
      <trkpt lat="47.35691" lon="0.68221">
        <ele>59.599998474121</ele>
        <time>2019-05-26T06:01:37.000Z</time>
      </trkpt>
      <trkpt lat="47.3569" lon="0.68222">
        <ele>59.599998474121</ele>
        <time>2019-05-26T06:01:38.000Z</time>
      </trkpt>
      <trkpt lat="47.35689" lon="0.68223">
        <ele>59.599998474121</ele>
        <time>2019-05-26T06:01:39.000Z</time>
      </trkpt>
      <trkpt lat="47.35688" lon="0.68224">
        <ele>59.599998474121</ele>
        <time>2019-05-26T06:01:40.000Z</time>
      </trkpt>
      <trkpt lat="47.35688" lon="0.68224">
        <ele>59.599998474121</ele>
        <time>2019-05-26T06:01:41.000Z</time>
      </trkpt>
      <trkpt lat="47.35687" lon="0.68224">
        <ele>59.799999237061</ele>
        <time>2019-05-26T06:01:42.000Z</time>
      </trkpt>
      <trkpt lat="47.35686" lon="0.68226">
        <ele>59.799999237061</ele>
        <time>2019-05-26T06:01:43.000Z</time>
      </trkpt>
      <trkpt lat="47.35684" lon="0.68227">
        <ele>59.799999237061</ele>
        <time>2019-05-26T06:01:44.000Z</time>
      </trkpt>
      <trkpt lat="47.35683" lon="0.68228">
        <ele>60</ele>
        <time>2019-05-26T06:01:45.000Z</time>
      </trkpt>
      <trkpt lat="47.35682" lon="0.68229">
        <ele>60</ele>
        <time>2019-05-26T06:01:46.000Z</time>
      </trkpt>
      <trkpt lat="47.35681" lon="0.6823">
        <ele>60.200000762939</ele>
        <time>2019-05-26T06:01:47.000Z</time>
      </trkpt>
      <trkpt lat="47.3568" lon="0.68231">
        <ele>60.400001525879</ele>
        <time>2019-05-26T06:01:48.000Z</time>
      </trkpt>
      <trkpt lat="47.35678" lon="0.68233">
        <ele>60.599998474121</ele>
        <time>2019-05-26T06:01:49.000Z</time>
      </trkpt>
      <trkpt lat="47.35677" lon="0.68234">
        <ele>60.799999237061</ele>
        <time>2019-05-26T06:01:50.000Z</time>
      </trkpt>
      <trkpt lat="47.35676" lon="0.68235">
        <ele>61</ele>
        <time>2019-05-26T06:01:51.000Z</time>
      </trkpt>
      <trkpt lat="47.35675" lon="0.68235">
        <ele>61</ele>
        <time>2019-05-26T06:01:52.000Z</time>
      </trkpt>
      <trkpt lat="47.35674" lon="0.68235">
        <ele>61</ele>
        <time>2019-05-26T06:01:53.000Z</time>
      </trkpt>
      <trkpt lat="47.35672" lon="0.68235">
        <ele>61.200000762939</ele>
        <time>2019-05-26T06:01:54.000Z</time>
      </trkpt>
      <trkpt lat="47.35671" lon="0.68235">
        <ele>61.200000762939</ele>
        <time>2019-05-26T06:01:55.000Z</time>
      </trkpt>
      <trkpt lat="47.35669" lon="0.68236">
        <ele>61.400001525879</ele>
        <time>2019-05-26T06:01:56.000Z</time>
      </trkpt>
      <trkpt lat="47.35668" lon="0.68237">
        <ele>61.400001525879</ele>
        <time>2019-05-26T06:01:57.000Z</time>
      </trkpt>
      <trkpt lat="47.35667" lon="0.68238">
        <ele>61.599998474121</ele>
        <time>2019-05-26T06:01:58.000Z</time>
      </trkpt>
      <trkpt lat="47.35666" lon="0.68239">
        <ele>61.799999237061</ele>
        <time>2019-05-26T06:01:59.000Z</time>
      </trkpt>
      <trkpt lat="47.35664" lon="0.6824">
        <ele>61.799999237061</ele>
        <time>2019-05-26T06:02:00.000Z</time>
      </trkpt>
      <trkpt lat="47.35663" lon="0.68241">
        <ele>62</ele>
        <time>2019-05-26T06:02:01.000Z</time>
      </trkpt>
      <trkpt lat="47.35662" lon="0.68242">
        <ele>62.200000762939</ele>
        <time>2019-05-26T06:02:02.000Z</time>
      </trkpt>
      <trkpt lat="47.35661" lon="0.68243">
        <ele>62.400001525879</ele>
        <time>2019-05-26T06:02:03.000Z</time>
      </trkpt>
      <trkpt lat="47.3566" lon="0.68244">
        <ele>62.599998474121</ele>
        <time>2019-05-26T06:02:04.000Z</time>
      </trkpt>
      <trkpt lat="47.35659" lon="0.68244">
        <ele>62.799999237061</ele>
        <time>2019-05-26T06:02:05.000Z</time>
      </trkpt>
      <trkpt lat="47.35658" lon="0.68245">
        <ele>62.799999237061</ele>
        <time>2019-05-26T06:02:06.000Z</time>
      </trkpt>
      <trkpt lat="47.35657" lon="0.68245">
        <ele>63</ele>
        <time>2019-05-26T06:02:07.000Z</time>
      </trkpt>
      <trkpt lat="47.35656" lon="0.68246">
        <ele>63.200000762939</ele>
        <time>2019-05-26T06:02:08.000Z</time>
      </trkpt>
      <trkpt lat="47.35655" lon="0.68246">
        <ele>63.400001525879</ele>
        <time>2019-05-26T06:02:09.000Z</time>
      </trkpt>
      <trkpt lat="47.35654" lon="0.68247">
        <ele>63.400001525879</ele>
        <time>2019-05-26T06:02:10.000Z</time>
      </trkpt>
      <trkpt lat="47.35653" lon="0.68247">
        <ele>63.400001525879</ele>
        <time>2019-05-26T06:02:11.000Z</time>
      </trkpt>
      <trkpt lat="47.35652" lon="0.68248">
        <ele>63.400001525879</ele>
        <time>2019-05-26T06:02:12.000Z</time>
      </trkpt>
      <trkpt lat="47.35651" lon="0.68249">
        <ele>63.599998474121</ele>
        <time>2019-05-26T06:02:13.000Z</time>
      </trkpt>
      <trkpt lat="47.3565" lon="0.6825">
        <ele>63.599998474121</ele>
        <time>2019-05-26T06:02:14.000Z</time>
      </trkpt>
      <trkpt lat="47.35649" lon="0.6825">
        <ele>63.599998474121</ele>
        <time>2019-05-26T06:02:15.000Z</time>
      </trkpt>
      <trkpt lat="47.35647" lon="0.68251">
        <ele>63.799999237061</ele>
        <time>2019-05-26T06:02:16.000Z</time>
      </trkpt>
      <trkpt lat="47.35646" lon="0.68252">
        <ele>64</ele>
        <time>2019-05-26T06:02:17.000Z</time>
      </trkpt>
      <trkpt lat="47.35644" lon="0.68251">
        <ele>64.199996948242</ele>
        <time>2019-05-26T06:02:18.000Z</time>
      </trkpt>
      <trkpt lat="47.35643" lon="0.68251">
        <ele>64.199996948242</ele>
        <time>2019-05-26T06:02:19.000Z</time>
      </trkpt>
      <trkpt lat="47.35642" lon="0.68251">
        <ele>64.199996948242</ele>
        <time>2019-05-26T06:02:20.000Z</time>
      </trkpt>
      <trkpt lat="47.35641" lon="0.68251">
        <ele>64.199996948242</ele>
        <time>2019-05-26T06:02:21.000Z</time>
      </trkpt>
      <trkpt lat="47.3564" lon="0.68252">
        <ele>64.199996948242</ele>
        <time>2019-05-26T06:02:22.000Z</time>
      </trkpt>
      <trkpt lat="47.35639" lon="0.68252">
        <ele>64.199996948242</ele>
        <time>2019-05-26T06:02:23.000Z</time>
      </trkpt>
      <trkpt lat="47.35638" lon="0.68252">
        <ele>64.199996948242</ele>
        <time>2019-05-26T06:02:24.000Z</time>
      </trkpt>
      <trkpt lat="47.35637" lon="0.68251">
        <ele>64.199996948242</ele>
        <time>2019-05-26T06:02:25.000Z</time>
      </trkpt>
      <trkpt lat="47.35636" lon="0.68252">
        <ele>64.199996948242</ele>
        <time>2019-05-26T06:02:26.000Z</time>
      </trkpt>
      <trkpt lat="47.35635" lon="0.68252">
        <ele>64.199996948242</ele>
        <time>2019-05-26T06:02:27.000Z</time>
      </trkpt>
      <trkpt lat="47.35634" lon="0.68252">
        <ele>64.400001525879</ele>
        <time>2019-05-26T06:02:28.000Z</time>
      </trkpt>
      <trkpt lat="47.35633" lon="0.68252">
        <ele>64.599998474121</ele>
        <time>2019-05-26T06:02:29.000Z</time>
      </trkpt>
      <trkpt lat="47.35631" lon="0.68253">
        <ele>64.800003051758</ele>
        <time>2019-05-26T06:02:30.000Z</time>
      </trkpt>
      <trkpt lat="47.3563" lon="0.68253">
        <ele>65</ele>
        <time>2019-05-26T06:02:31.000Z</time>
      </trkpt>
      <trkpt lat="47.35628" lon="0.68253">
        <ele>65.199996948242</ele>
        <time>2019-05-26T06:02:32.000Z</time>
      </trkpt>
      <trkpt lat="47.35627" lon="0.68253">
        <ele>65.400001525879</ele>
        <time>2019-05-26T06:02:33.000Z</time>
      </trkpt>
      <trkpt lat="47.35626" lon="0.68253">
        <ele>65.599998474121</ele>
        <time>2019-05-26T06:02:34.000Z</time>
      </trkpt>
      <trkpt lat="47.35625" lon="0.68253">
        <ele>65.800003051758</ele>
        <time>2019-05-26T06:02:35.000Z</time>
      </trkpt>
      <trkpt lat="47.35624" lon="0.68253">
        <ele>65.800003051758</ele>
        <time>2019-05-26T06:02:36.000Z</time>
      </trkpt>
      <trkpt lat="47.35622" lon="0.68253">
        <ele>66</ele>
        <time>2019-05-26T06:02:37.000Z</time>
      </trkpt>
      <trkpt lat="47.35621" lon="0.68253">
        <ele>66</ele>
        <time>2019-05-26T06:02:38.000Z</time>
      </trkpt>
      <trkpt lat="47.35619" lon="0.68253">
        <ele>66.199996948242</ele>
        <time>2019-05-26T06:02:39.000Z</time>
      </trkpt>
      <trkpt lat="47.35618" lon="0.68253">
        <ele>66.199996948242</ele>
        <time>2019-05-26T06:02:40.000Z</time>
      </trkpt>
      <trkpt lat="47.35616" lon="0.68252">
        <ele>66.199996948242</ele>
        <time>2019-05-26T06:02:41.000Z</time>
      </trkpt>
      <trkpt lat="47.35614" lon="0.68252">
        <ele>66.400001525879</ele>
        <time>2019-05-26T06:02:42.000Z</time>
      </trkpt>
      <trkpt lat="47.35612" lon="0.68251">
        <ele>66.400001525879</ele>
        <time>2019-05-26T06:02:43.000Z</time>
      </trkpt>
      <trkpt lat="47.3561" lon="0.68251">
        <ele>66.599998474121</ele>
        <time>2019-05-26T06:02:44.000Z</time>
      </trkpt>
      <trkpt lat="47.35609" lon="0.68251">
        <ele>66.599998474121</ele>
        <time>2019-05-26T06:02:45.000Z</time>
      </trkpt>
      <trkpt lat="47.35607" lon="0.68251">
        <ele>66.800003051758</ele>
        <time>2019-05-26T06:02:46.000Z</time>
      </trkpt>
      <trkpt lat="47.35605" lon="0.68251">
        <ele>66.800003051758</ele>
        <time>2019-05-26T06:02:47.000Z</time>
      </trkpt>
      <trkpt lat="47.35604" lon="0.68251">
        <ele>66.800003051758</ele>
        <time>2019-05-26T06:02:48.000Z</time>
      </trkpt>
      <trkpt lat="47.35602" lon="0.68251">
        <ele>67</ele>
        <time>2019-05-26T06:02:49.000Z</time>
      </trkpt>
      <trkpt lat="47.356" lon="0.68251">
        <ele>67</ele>
        <time>2019-05-26T06:02:50.000Z</time>
      </trkpt>
      <trkpt lat="47.35599" lon="0.68252">
        <ele>67.199996948242</ele>
        <time>2019-05-26T06:02:51.000Z</time>
      </trkpt>
      <trkpt lat="47.35597" lon="0.68252">
        <ele>67.199996948242</ele>
        <time>2019-05-26T06:02:52.000Z</time>
      </trkpt>
      <trkpt lat="47.35595" lon="0.68253">
        <ele>67.199996948242</ele>
        <time>2019-05-26T06:02:53.000Z</time>
      </trkpt>
      <trkpt lat="47.35594" lon="0.68253">
        <ele>67.400001525879</ele>
        <time>2019-05-26T06:02:54.000Z</time>
      </trkpt>
      <trkpt lat="47.35593" lon="0.68253">
        <ele>67.400001525879</ele>
        <time>2019-05-26T06:02:55.000Z</time>
      </trkpt>
      <trkpt lat="47.35592" lon="0.68254">
        <ele>67.599998474121</ele>
        <time>2019-05-26T06:02:56.000Z</time>
      </trkpt>
      <trkpt lat="47.35591" lon="0.68255">
        <ele>67.599998474121</ele>
        <time>2019-05-26T06:02:57.000Z</time>
      </trkpt>
      <trkpt lat="47.35589" lon="0.68256">
        <ele>67.800003051758</ele>
        <time>2019-05-26T06:02:58.000Z</time>
      </trkpt>
      <trkpt lat="47.35588" lon="0.68256">
        <ele>67.800003051758</ele>
        <time>2019-05-26T06:02:59.000Z</time>
      </trkpt>
      <trkpt lat="47.35587" lon="0.68257">
        <ele>68</ele>
        <time>2019-05-26T06:03:00.000Z</time>
      </trkpt>
      <trkpt lat="47.35586" lon="0.68257">
        <ele>68.199996948242</ele>
        <time>2019-05-26T06:03:01.000Z</time>
      </trkpt>
      <trkpt lat="47.35584" lon="0.68257">
        <ele>68.199996948242</ele>
        <time>2019-05-26T06:03:02.000Z</time>
      </trkpt>
      <trkpt lat="47.35583" lon="0.68257">
        <ele>68.400001525879</ele>
        <time>2019-05-26T06:03:03.000Z</time>
      </trkpt>
      <trkpt lat="47.35581" lon="0.68257">
        <ele>68.599998474121</ele>
        <time>2019-05-26T06:03:04.000Z</time>
      </trkpt>
      <trkpt lat="47.3558" lon="0.68258">
        <ele>68.800003051758</ele>
        <time>2019-05-26T06:03:05.000Z</time>
      </trkpt>
      <trkpt lat="47.35579" lon="0.68258">
        <ele>69</ele>
        <time>2019-05-26T06:03:06.000Z</time>
      </trkpt>
      <trkpt lat="47.35577" lon="0.68259">
        <ele>69</ele>
        <time>2019-05-26T06:03:07.000Z</time>
      </trkpt>
      <trkpt lat="47.35576" lon="0.68259">
        <ele>69.199996948242</ele>
        <time>2019-05-26T06:03:08.000Z</time>
      </trkpt>
      <trkpt lat="47.35575" lon="0.68261">
        <ele>69.199996948242</ele>
        <time>2019-05-26T06:03:09.000Z</time>
      </trkpt>
      <trkpt lat="47.35574" lon="0.68261">
        <ele>69.199996948242</ele>
        <time>2019-05-26T06:03:10.000Z</time>
      </trkpt>
      <trkpt lat="47.35572" lon="0.68262">
        <ele>69.400001525879</ele>
        <time>2019-05-26T06:03:11.000Z</time>
      </trkpt>
      <trkpt lat="47.35571" lon="0.68262">
        <ele>69.400001525879</ele>
        <time>2019-05-26T06:03:12.000Z</time>
      </trkpt>
      <trkpt lat="47.35569" lon="0.68262">
        <ele>69.599998474121</ele>
        <time>2019-05-26T06:03:13.000Z</time>
      </trkpt>
      <trkpt lat="47.35568" lon="0.68262">
        <ele>69.800003051758</ele>
        <time>2019-05-26T06:03:14.000Z</time>
      </trkpt>
      <trkpt lat="47.35566" lon="0.68262">
        <ele>70</ele>
        <time>2019-05-26T06:03:15.000Z</time>
      </trkpt>
      <trkpt lat="47.35564" lon="0.68261">
        <ele>70</ele>
        <time>2019-05-26T06:03:16.000Z</time>
      </trkpt>
      <trkpt lat="47.35562" lon="0.68261">
        <ele>70.199996948242</ele>
        <time>2019-05-26T06:03:17.000Z</time>
      </trkpt>
      <trkpt lat="47.3556" lon="0.68261">
        <ele>70.400001525879</ele>
        <time>2019-05-26T06:03:18.000Z</time>
      </trkpt>
      <trkpt lat="47.35558" lon="0.68261">
        <ele>70.400001525879</ele>
        <time>2019-05-26T06:03:19.000Z</time>
      </trkpt>
      <trkpt lat="47.35556" lon="0.68262">
        <ele>70.599998474121</ele>
        <time>2019-05-26T06:03:20.000Z</time>
      </trkpt>
      <trkpt lat="47.35553" lon="0.68262">
        <ele>70.599998474121</ele>
        <time>2019-05-26T06:03:21.000Z</time>
      </trkpt>
      <trkpt lat="47.35551" lon="0.68263">
        <ele>70.800003051758</ele>
        <time>2019-05-26T06:03:22.000Z</time>
      </trkpt>
      <trkpt lat="47.3555" lon="0.68264">
        <ele>71</ele>
        <time>2019-05-26T06:03:23.000Z</time>
      </trkpt>
      <trkpt lat="47.35548" lon="0.68265">
        <ele>71</ele>
        <time>2019-05-26T06:03:24.000Z</time>
      </trkpt>
      <trkpt lat="47.35546" lon="0.68267">
        <ele>71.199996948242</ele>
        <time>2019-05-26T06:03:25.000Z</time>
      </trkpt>
      <trkpt lat="47.35544" lon="0.68268">
        <ele>71.199996948242</ele>
        <time>2019-05-26T06:03:26.000Z</time>
      </trkpt>
      <trkpt lat="47.35543" lon="0.68269">
        <ele>71.199996948242</ele>
        <time>2019-05-26T06:03:27.000Z</time>
      </trkpt>
      <trkpt lat="47.35541" lon="0.6827">
        <ele>71.199996948242</ele>
        <time>2019-05-26T06:03:28.000Z</time>
      </trkpt>
      <trkpt lat="47.35539" lon="0.68271">
        <ele>71.400001525879</ele>
        <time>2019-05-26T06:03:29.000Z</time>
      </trkpt>
      <trkpt lat="47.35538" lon="0.68271">
        <ele>71.400001525879</ele>
        <time>2019-05-26T06:03:30.000Z</time>
      </trkpt>
      <trkpt lat="47.35536" lon="0.68272">
        <ele>71.599998474121</ele>
        <time>2019-05-26T06:03:31.000Z</time>
      </trkpt>
      <trkpt lat="47.35535" lon="0.68274">
        <ele>71.599998474121</ele>
        <time>2019-05-26T06:03:32.000Z</time>
      </trkpt>
      <trkpt lat="47.35533" lon="0.68275">
        <ele>71.800003051758</ele>
        <time>2019-05-26T06:03:33.000Z</time>
      </trkpt>
      <trkpt lat="47.35532" lon="0.68277">
        <ele>71.800003051758</ele>
        <time>2019-05-26T06:03:34.000Z</time>
      </trkpt>
      <trkpt lat="47.35531" lon="0.68278">
        <ele>72</ele>
        <time>2019-05-26T06:03:35.000Z</time>
      </trkpt>
      <trkpt lat="47.35529" lon="0.68279">
        <ele>72.199996948242</ele>
        <time>2019-05-26T06:03:36.000Z</time>
      </trkpt>
      <trkpt lat="47.35528" lon="0.6828">
        <ele>72.199996948242</ele>
        <time>2019-05-26T06:03:37.000Z</time>
      </trkpt>
      <trkpt lat="47.35526" lon="0.68281">
        <ele>72.199996948242</ele>
        <time>2019-05-26T06:03:38.000Z</time>
      </trkpt>
      <trkpt lat="47.35525" lon="0.68282">
        <ele>72.199996948242</ele>
        <time>2019-05-26T06:03:39.000Z</time>
      </trkpt>
      <trkpt lat="47.35523" lon="0.68284">
        <ele>72.199996948242</ele>
        <time>2019-05-26T06:03:40.000Z</time>
      </trkpt>
      <trkpt lat="47.35522" lon="0.68286">
        <ele>72.400001525879</ele>
        <time>2019-05-26T06:03:41.000Z</time>
      </trkpt>
      <trkpt lat="47.3552" lon="0.68287">
        <ele>72.400001525879</ele>
        <time>2019-05-26T06:03:42.000Z</time>
      </trkpt>
      <trkpt lat="47.35519" lon="0.68288">
        <ele>72.400001525879</ele>
        <time>2019-05-26T06:03:43.000Z</time>
      </trkpt>
      <trkpt lat="47.35518" lon="0.6829">
        <ele>72.400001525879</ele>
        <time>2019-05-26T06:03:44.000Z</time>
      </trkpt>
      <trkpt lat="47.35517" lon="0.68291">
        <ele>72.599998474121</ele>
        <time>2019-05-26T06:03:45.000Z</time>
      </trkpt>
      <trkpt lat="47.35516" lon="0.68292">
        <ele>72.800003051758</ele>
        <time>2019-05-26T06:03:46.000Z</time>
      </trkpt>
      <trkpt lat="47.35515" lon="0.68294">
        <ele>73</ele>
        <time>2019-05-26T06:03:47.000Z</time>
      </trkpt>
      <trkpt lat="47.35514" lon="0.68296">
        <ele>73.199996948242</ele>
        <time>2019-05-26T06:03:48.000Z</time>
      </trkpt>
      <trkpt lat="47.35513" lon="0.68297">
        <ele>73.199996948242</ele>
        <time>2019-05-26T06:03:49.000Z</time>
      </trkpt>
      <trkpt lat="47.35512" lon="0.68298">
        <ele>73.400001525879</ele>
        <time>2019-05-26T06:03:50.000Z</time>
      </trkpt>
      <trkpt lat="47.35511" lon="0.683">
        <ele>73.400001525879</ele>
        <time>2019-05-26T06:03:51.000Z</time>
      </trkpt>
      <trkpt lat="47.35509" lon="0.68301">
        <ele>73.599998474121</ele>
        <time>2019-05-26T06:03:52.000Z</time>
      </trkpt>
      <trkpt lat="47.35508" lon="0.68302">
        <ele>73.599998474121</ele>
        <time>2019-05-26T06:03:53.000Z</time>
      </trkpt>
      <trkpt lat="47.35506" lon="0.68303">
        <ele>73.800003051758</ele>
        <time>2019-05-26T06:03:54.000Z</time>
      </trkpt>
      <trkpt lat="47.35505" lon="0.68305">
        <ele>73.800003051758</ele>
        <time>2019-05-26T06:03:55.000Z</time>
      </trkpt>
      <trkpt lat="47.35503" lon="0.68306">
        <ele>74</ele>
        <time>2019-05-26T06:03:56.000Z</time>
      </trkpt>
      <trkpt lat="47.35502" lon="0.68307">
        <ele>74.199996948242</ele>
        <time>2019-05-26T06:03:57.000Z</time>
      </trkpt>
      <trkpt lat="47.35501" lon="0.68308">
        <ele>74.199996948242</ele>
        <time>2019-05-26T06:03:58.000Z</time>
      </trkpt>
      <trkpt lat="47.355" lon="0.68309">
        <ele>74.400001525879</ele>
        <time>2019-05-26T06:03:59.000Z</time>
      </trkpt>
      <trkpt lat="47.35499" lon="0.68309">
        <ele>74.400001525879</ele>
        <time>2019-05-26T06:04:00.000Z</time>
      </trkpt>
      <trkpt lat="47.35498" lon="0.68309">
        <ele>74.400001525879</ele>
        <time>2019-05-26T06:04:01.000Z</time>
      </trkpt>
      <trkpt lat="47.35497" lon="0.68309">
        <ele>74.599998474121</ele>
        <time>2019-05-26T06:04:02.000Z</time>
      </trkpt>
      <trkpt lat="47.35496" lon="0.6831">
        <ele>74.599998474121</ele>
        <time>2019-05-26T06:04:03.000Z</time>
      </trkpt>
      <trkpt lat="47.35494" lon="0.6831">
        <ele>74.599998474121</ele>
        <time>2019-05-26T06:04:04.000Z</time>
      </trkpt>
      <trkpt lat="47.35493" lon="0.68311">
        <ele>74.800003051758</ele>
        <time>2019-05-26T06:04:05.000Z</time>
      </trkpt>
      <trkpt lat="47.35491" lon="0.68311">
        <ele>75</ele>
        <time>2019-05-26T06:04:06.000Z</time>
      </trkpt>
      <trkpt lat="47.3549" lon="0.68311">
        <ele>75.199996948242</ele>
        <time>2019-05-26T06:04:07.000Z</time>
      </trkpt>
      <trkpt lat="47.35489" lon="0.68312">
        <ele>75.199996948242</ele>
        <time>2019-05-26T06:04:08.000Z</time>
      </trkpt>
      <trkpt lat="47.35487" lon="0.68313">
        <ele>75.400001525879</ele>
        <time>2019-05-26T06:04:09.000Z</time>
      </trkpt>
      <trkpt lat="47.35486" lon="0.68313">
        <ele>75.400001525879</ele>
        <time>2019-05-26T06:04:10.000Z</time>
      </trkpt>
      <trkpt lat="47.35485" lon="0.68313">
        <ele>75.599998474121</ele>
        <time>2019-05-26T06:04:11.000Z</time>
      </trkpt>
      <trkpt lat="47.35484" lon="0.68314">
        <ele>75.599998474121</ele>
        <time>2019-05-26T06:04:12.000Z</time>
      </trkpt>
      <trkpt lat="47.35483" lon="0.68314">
        <ele>75.800003051758</ele>
        <time>2019-05-26T06:04:13.000Z</time>
      </trkpt>
      <trkpt lat="47.35481" lon="0.68315">
        <ele>75.800003051758</ele>
        <time>2019-05-26T06:04:14.000Z</time>
      </trkpt>
      <trkpt lat="47.3548" lon="0.68315">
        <ele>76</ele>
        <time>2019-05-26T06:04:15.000Z</time>
      </trkpt>
      <trkpt lat="47.35478" lon="0.68316">
        <ele>76.199996948242</ele>
        <time>2019-05-26T06:04:16.000Z</time>
      </trkpt>
      <trkpt lat="47.35477" lon="0.68317">
        <ele>76.199996948242</ele>
        <time>2019-05-26T06:04:17.000Z</time>
      </trkpt>
      <trkpt lat="47.35476" lon="0.68318">
        <ele>76.400001525879</ele>
        <time>2019-05-26T06:04:18.000Z</time>
      </trkpt>
      <trkpt lat="47.35474" lon="0.68318">
        <ele>76.400001525879</ele>
        <time>2019-05-26T06:04:19.000Z</time>
      </trkpt>
      <trkpt lat="47.35473" lon="0.68319">
        <ele>76.599998474121</ele>
        <time>2019-05-26T06:04:20.000Z</time>
      </trkpt>
      <trkpt lat="47.35471" lon="0.6832">
        <ele>76.599998474121</ele>
        <time>2019-05-26T06:04:21.000Z</time>
      </trkpt>
      <trkpt lat="47.3547" lon="0.68321">
        <ele>76.800003051758</ele>
        <time>2019-05-26T06:04:22.000Z</time>
      </trkpt>
      <trkpt lat="47.35469" lon="0.68322">
        <ele>76.800003051758</ele>
        <time>2019-05-26T06:04:23.000Z</time>
      </trkpt>
      <trkpt lat="47.35467" lon="0.68322">
        <ele>77</ele>
        <time>2019-05-26T06:04:24.000Z</time>
      </trkpt>
      <trkpt lat="47.35466" lon="0.68324">
        <ele>77.199996948242</ele>
        <time>2019-05-26T06:04:25.000Z</time>
      </trkpt>
      <trkpt lat="47.35464" lon="0.68325">
        <ele>77.199996948242</ele>
        <time>2019-05-26T06:04:26.000Z</time>
      </trkpt>
      <trkpt lat="47.35463" lon="0.68326">
        <ele>77.400001525879</ele>
        <time>2019-05-26T06:04:27.000Z</time>
      </trkpt>
      <trkpt lat="47.35461" lon="0.68326">
        <ele>77.599998474121</ele>
        <time>2019-05-26T06:04:28.000Z</time>
      </trkpt>
      <trkpt lat="47.3546" lon="0.68327">
        <ele>77.599998474121</ele>
        <time>2019-05-26T06:04:29.000Z</time>
      </trkpt>
      <trkpt lat="47.35458" lon="0.68328">
        <ele>77.800003051758</ele>
        <time>2019-05-26T06:04:30.000Z</time>
      </trkpt>
      <trkpt lat="47.35457" lon="0.68329">
        <ele>77.800003051758</ele>
        <time>2019-05-26T06:04:31.000Z</time>
      </trkpt>
      <trkpt lat="47.35455" lon="0.6833">
        <ele>78</ele>
        <time>2019-05-26T06:04:32.000Z</time>
      </trkpt>
      <trkpt lat="47.35453" lon="0.68331">
        <ele>78</ele>
        <time>2019-05-26T06:04:33.000Z</time>
      </trkpt>
      <trkpt lat="47.35451" lon="0.68331">
        <ele>78.199996948242</ele>
        <time>2019-05-26T06:04:34.000Z</time>
      </trkpt>
      <trkpt lat="47.35449" lon="0.68333">
        <ele>78.400001525879</ele>
        <time>2019-05-26T06:04:35.000Z</time>
      </trkpt>
      <trkpt lat="47.35448" lon="0.68333">
        <ele>78.599998474121</ele>
        <time>2019-05-26T06:04:36.000Z</time>
      </trkpt>
      <trkpt lat="47.35446" lon="0.68334">
        <ele>78.800003051758</ele>
        <time>2019-05-26T06:04:37.000Z</time>
      </trkpt>
      <trkpt lat="47.35445" lon="0.68336">
        <ele>79</ele>
        <time>2019-05-26T06:04:38.000Z</time>
      </trkpt>
      <trkpt lat="47.35443" lon="0.68337">
        <ele>79</ele>
        <time>2019-05-26T06:04:39.000Z</time>
      </trkpt>
      <trkpt lat="47.35442" lon="0.68338">
        <ele>79.199996948242</ele>
        <time>2019-05-26T06:04:40.000Z</time>
      </trkpt>
      <trkpt lat="47.35442" lon="0.68339">
        <ele>79.199996948242</ele>
        <time>2019-05-26T06:04:41.000Z</time>
      </trkpt>
      <trkpt lat="47.35441" lon="0.68341">
        <ele>79.199996948242</ele>
        <time>2019-05-26T06:04:42.000Z</time>
      </trkpt>
      <trkpt lat="47.35439" lon="0.68344">
        <ele>79.400001525879</ele>
        <time>2019-05-26T06:04:43.000Z</time>
      </trkpt>
      <trkpt lat="47.35438" lon="0.68344">
        <ele>79.400001525879</ele>
        <time>2019-05-26T06:04:44.000Z</time>
      </trkpt>
      <trkpt lat="47.35436" lon="0.68345">
        <ele>79.400001525879</ele>
        <time>2019-05-26T06:04:45.000Z</time>
      </trkpt>
      <trkpt lat="47.35436" lon="0.68348">
        <ele>78.800003051758</ele>
        <time>2019-05-26T06:04:46.000Z</time>
      </trkpt>
    </trkseg>
  </trk>
</gpx>